sensor_id;sensor_type;location;lat;lon;timestamp;pressure;altitude;pressure_sealevel;temperature;humidity
50682;BME280;36779;52.168;20.878;2022-08-04T00:00:20;100798.23;;;18.25;60.06
50682;BME280;36779;52.168;20.878;2022-08-04T00:03:15;100797.04;;;18.19;60.01
50682;BME280;36779;52.168;20.878;2022-08-04T00:06:13;100797.44;;;18.13;60.28
50682;BME280;36779;52.168;20.878;2022-08-04T00:09:12;100799.03;;;18.07;60.28
50682;BME280;36779;52.168;20.878;2022-08-04T00:12:02;100798.94;;;18.05;60.38
50682;BME280;36779;52.168;20.878;2022-08-04T00:14:57;100800.89;;;18.04;60.49
50682;BME280;36779;52.168;20.878;2022-08-04T00:17:50;100799.05;;;18.01;60.46
50682;BME280;36779;52.168;20.878;2022-08-04T00:20:38;100800.06;;;17.96;60.59
50682;BME280;36779;52.168;20.878;2022-08-04T00:23:29;100799.13;;;17.89;60.60
50682;BME280;36779;52.168;20.878;2022-08-04T00:26:41;100800.25;;;17.83;60.75
50682;BME280;36779;52.168;20.878;2022-08-04T00:29:32;100794.67;;;17.79;60.84
50682;BME280;36779;52.168;20.878;2022-08-04T00:32:22;100804.49;;;17.78;60.82
50682;BME280;36779;52.168;20.878;2022-08-04T00:35:23;100804.86;;;17.77;60.84
50682;BME280;36779;52.168;20.878;2022-08-04T00:38:13;100803.11;;;17.75;60.91
50682;BME280;36779;52.168;20.878;2022-08-04T00:41:11;100799.92;;;17.75;61.11
50682;BME280;36779;52.168;20.878;2022-08-04T00:44:23;100803.19;;;17.73;61.06
50682;BME280;36779;52.168;20.878;2022-08-04T00:47:22;100800.41;;;17.71;61.03
50682;BME280;36779;52.168;20.878;2022-08-04T00:50:23;100801.84;;;17.69;61.26
50682;BME280;36779;52.168;20.878;2022-08-04T00:53:24;100801.60;;;17.71;61.17
50682;BME280;36779;52.168;20.878;2022-08-04T00:56:38;100801.73;;;17.71;61.42
50682;BME280;36779;52.168;20.878;2022-08-04T00:59:40;100804.02;;;17.66;61.38
50682;BME280;36779;52.168;20.878;2022-08-04T01:02:36;100805.40;;;17.60;61.40
50682;BME280;36779;52.168;20.878;2022-08-04T01:05:33;100801.25;;;17.54;61.44
50682;BME280;36779;52.168;20.878;2022-08-04T01:08:44;100803.20;;;17.53;61.43
50682;BME280;36779;52.168;20.878;2022-08-04T01:11:36;100804.81;;;17.52;61.41
50682;BME280;36779;52.168;20.878;2022-08-04T01:14:56;100806.62;;;17.49;61.56
50682;BME280;36779;52.168;20.878;2022-08-04T01:17:57;100805.89;;;17.47;61.80
50682;BME280;36779;52.168;20.878;2022-08-04T01:20:52;100810.36;;;17.45;61.78
50682;BME280;36779;52.168;20.878;2022-08-04T01:24:08;100810.90;;;17.41;61.81
50682;BME280;36779;52.168;20.878;2022-08-04T01:26:57;100811.89;;;17.39;61.80
50682;BME280;36779;52.168;20.878;2022-08-04T01:29:55;100811.88;;;17.37;61.80
50682;BME280;36779;52.168;20.878;2022-08-04T01:32:49;100812.80;;;17.36;61.95
50682;BME280;36779;52.168;20.878;2022-08-04T01:35:45;100815.95;;;17.34;61.92
50682;BME280;36779;52.168;20.878;2022-08-04T01:38:29;100819.20;;;17.30;61.78
50682;BME280;36779;52.168;20.878;2022-08-04T01:41:21;100816.88;;;17.25;62.07
50682;BME280;36779;52.168;20.878;2022-08-04T01:44:21;100821.31;;;17.25;62.16
50682;BME280;36779;52.168;20.878;2022-08-04T01:47:14;100819.63;;;17.26;62.27
50682;BME280;36779;52.168;20.878;2022-08-04T01:50:09;100815.50;;;17.29;62.33
50682;BME280;36779;52.168;20.878;2022-08-04T01:53:00;100816.13;;;17.30;62.37
50682;BME280;36779;52.168;20.878;2022-08-04T01:55:52;100813.75;;;17.27;62.34
50682;BME280;36779;52.168;20.878;2022-08-04T01:58:43;100813.84;;;17.26;62.31
50682;BME280;36779;52.168;20.878;2022-08-04T02:01:35;100812.80;;;17.28;62.57
50682;BME280;36779;52.168;20.878;2022-08-04T02:04:24;100811.20;;;17.30;62.41
50682;BME280;36779;52.168;20.878;2022-08-04T02:07:22;100812.31;;;17.34;62.40
50682;BME280;36779;52.168;20.878;2022-08-04T02:10:26;100810.13;;;17.37;62.67
50682;BME280;36779;52.168;20.878;2022-08-04T02:13:19;100808.32;;;17.38;62.64
50682;BME280;36779;52.168;20.878;2022-08-04T02:16:18;100805.11;;;17.38;62.63
50682;BME280;36779;52.168;20.878;2022-08-04T02:19:17;100803.32;;;17.41;62.72
50682;BME280;36779;52.168;20.878;2022-08-04T02:22:16;100802.19;;;17.45;62.64
50682;BME280;36779;52.168;20.878;2022-08-04T02:25:08;100797.68;;;17.46;62.70
50682;BME280;36779;52.168;20.878;2022-08-04T02:28:21;100795.55;;;17.46;62.59
50682;BME280;36779;52.168;20.878;2022-08-04T02:31:26;100793.74;;;17.46;62.71
50682;BME280;36779;52.168;20.878;2022-08-04T02:34:19;100792.45;;;17.46;62.74
50682;BME280;36779;52.168;20.878;2022-08-04T02:37:12;100797.52;;;17.46;62.88
50682;BME280;36779;52.168;20.878;2022-08-04T02:40:06;100795.15;;;17.46;62.75
50682;BME280;36779;52.168;20.878;2022-08-04T02:42:57;100794.55;;;17.44;62.78
50682;BME280;36779;52.168;20.878;2022-08-04T02:45:48;100790.52;;;17.41;62.77
50682;BME280;36779;52.168;20.878;2022-08-04T02:48:40;100786.70;;;17.42;62.87
50682;BME280;36779;52.168;20.878;2022-08-04T02:51:34;100789.81;;;17.40;62.75
50682;BME280;36779;52.168;20.878;2022-08-04T02:54:27;100787.14;;;17.40;62.96
50682;BME280;36779;52.168;20.878;2022-08-04T02:57:26;100788.93;;;17.41;62.90
50682;BME280;36779;52.168;20.878;2022-08-04T03:00:16;100788.98;;;17.41;62.90
50682;BME280;36779;52.168;20.878;2022-08-04T03:03:18;100792.83;;;17.36;62.87
50682;BME280;36779;52.168;20.878;2022-08-04T03:06:37;100798.20;;;17.32;62.97
50682;BME280;36779;52.168;20.878;2022-08-04T03:09:35;100798.94;;;17.29;62.89
50682;BME280;36779;52.168;20.878;2022-08-04T03:16:07;100798.52;;;17.14;62.95
50682;BME280;36779;52.168;20.878;2022-08-04T03:19:19;100797.61;;;17.08;62.88
50682;BME280;36779;52.168;20.878;2022-08-04T03:22:24;100798.45;;;17.10;63.14
50682;BME280;36779;52.168;20.878;2022-08-04T03:25:40;100801.04;;;17.12;63.02
50682;BME280;36779;52.168;20.878;2022-08-04T03:36:15;100806.52;;;17.25;63.21
50682;BME280;36779;52.168;20.878;2022-08-04T03:39:41;100806.95;;;17.27;63.36
50682;BME280;36779;52.168;20.878;2022-08-04T03:43:02;100807.88;;;17.29;63.28
50682;BME280;36779;52.168;20.878;2022-08-04T03:50:04;100813.83;;;17.37;63.41
50682;BME280;36779;52.168;20.878;2022-08-04T03:53:25;100813.77;;;17.42;63.50
50682;BME280;36779;52.168;20.878;2022-08-04T03:56:38;100813.45;;;17.42;63.29
50682;BME280;36779;52.168;20.878;2022-08-04T03:59:49;100818.14;;;17.45;63.46
50682;BME280;36779;52.168;20.878;2022-08-04T04:03:15;100819.34;;;17.49;63.40
50682;BME280;36779;52.168;20.878;2022-08-04T04:16:31;100825.88;;;17.53;63.45
50682;BME280;36779;52.168;20.878;2022-08-04T04:19:40;100830.95;;;17.55;63.58
50682;BME280;36779;52.168;20.878;2022-08-04T04:22:49;100830.04;;;17.61;63.61
50682;BME280;36779;52.168;20.878;2022-08-04T04:25:50;100831.11;;;17.67;63.70
50682;BME280;36779;52.168;20.878;2022-08-04T04:28:57;100828.83;;;17.73;63.57
50682;BME280;36779;52.168;20.878;2022-08-04T04:32:03;100828.56;;;17.80;63.73
50682;BME280;36779;52.168;20.878;2022-08-04T04:35:07;100830.03;;;17.91;63.80
50682;BME280;36779;52.168;20.878;2022-08-04T04:38:26;100836.11;;;18.00;63.99
50682;BME280;36779;52.168;20.878;2022-08-04T04:41:39;100837.92;;;18.10;63.89
50682;BME280;36779;52.168;20.878;2022-08-04T04:47:59;100836.73;;;18.29;63.97
50682;BME280;36779;52.168;20.878;2022-08-04T04:51:07;100839.47;;;18.45;64.05
50682;BME280;36779;52.168;20.878;2022-08-04T04:54:03;100841.42;;;18.60;64.16
50682;BME280;36779;52.168;20.878;2022-08-04T04:57:02;100843.62;;;18.73;64.13
50682;BME280;36779;52.168;20.878;2022-08-04T04:59:57;100847.85;;;18.85;63.99
50682;BME280;36779;52.168;20.878;2022-08-04T05:03:10;100849.14;;;18.96;64.04
50682;BME280;36779;52.168;20.878;2022-08-04T05:06:27;100851.03;;;19.10;64.00
50682;BME280;36779;52.168;20.878;2022-08-04T05:09:34;100852.98;;;19.24;63.96
50682;BME280;36779;52.168;20.878;2022-08-04T05:12:55;100849.83;;;19.41;63.87
50682;BME280;36779;52.168;20.878;2022-08-04T05:16:12;100850.56;;;19.63;63.82
50682;BME280;36779;52.168;20.878;2022-08-04T05:19:12;100856.52;;;19.92;63.82
50682;BME280;36779;52.168;20.878;2022-08-04T05:22:10;100853.88;;;20.31;63.97
50682;BME280;36779;52.168;20.878;2022-08-04T05:25:06;100857.05;;;20.84;64.00
50682;BME280;36779;52.168;20.878;2022-08-04T05:28:01;100848.17;;;21.61;64.41
50682;BME280;36779;52.168;20.878;2022-08-04T05:30:53;100848.73;;;22.52;64.70
50682;BME280;36779;52.168;20.878;2022-08-04T05:33:48;100846.92;;;23.17;64.29
50682;BME280;36779;52.168;20.878;2022-08-04T05:36:42;100846.52;;;23.27;63.14
50682;BME280;36779;52.168;20.878;2022-08-04T05:39:36;100852.11;;;23.11;62.25
50682;BME280;36779;52.168;20.878;2022-08-04T05:42:27;100854.23;;;22.87;61.75
50682;BME280;36779;52.168;20.878;2022-08-04T05:45:17;100852.67;;;22.69;61.68
50682;BME280;36779;52.168;20.878;2022-08-04T05:48:08;100852.09;;;22.63;61.78
50682;BME280;36779;52.168;20.878;2022-08-04T05:50:49;100858.18;;;22.63;61.62
50682;BME280;36779;52.168;20.878;2022-08-04T05:53:40;100857.64;;;22.54;61.43
50682;BME280;36779;52.168;20.878;2022-08-04T05:56:31;100862.68;;;22.42;61.25
50682;BME280;36779;52.168;20.878;2022-08-04T05:59:22;100869.15;;;22.34;61.21
50682;BME280;36779;52.168;20.878;2022-08-04T06:02:14;100869.95;;;22.24;61.12
50682;BME280;36779;52.168;20.878;2022-08-04T06:05:07;100870.20;;;22.13;61.09
50682;BME280;36779;52.168;20.878;2022-08-04T06:07:56;100869.45;;;22.01;61.03
50682;BME280;36779;52.168;20.878;2022-08-04T06:11:07;100867.90;;;21.90;61.02
50682;BME280;36779;52.168;20.878;2022-08-04T06:13:58;100867.77;;;21.82;61.09
50682;BME280;36779;52.168;20.878;2022-08-04T06:16:48;100871.07;;;21.82;61.15
50682;BME280;36779;52.168;20.878;2022-08-04T06:19:42;100869.72;;;21.79;61.07
50682;BME280;36779;52.168;20.878;2022-08-04T06:22:54;100871.15;;;21.81;61.05
50682;BME280;36779;52.168;20.878;2022-08-04T06:25:47;100874.08;;;21.85;61.03
50682;BME280;36779;52.168;20.878;2022-08-04T06:28:38;100874.83;;;21.90;61.04
50682;BME280;36779;52.168;20.878;2022-08-04T06:31:31;100877.98;;;21.96;61.09
50682;BME280;36779;52.168;20.878;2022-08-04T06:34:53;100881.09;;;22.03;60.96
50682;BME280;36779;52.168;20.878;2022-08-04T06:37:44;100877.74;;;22.09;60.95
50682;BME280;36779;52.168;20.878;2022-08-04T06:40:34;100880.54;;;22.14;60.90
50682;BME280;36779;52.168;20.878;2022-08-04T06:43:24;100880.95;;;22.15;60.65
50682;BME280;36779;52.168;20.878;2022-08-04T06:46:15;100878.40;;;22.21;60.73
50682;BME280;36779;52.168;20.878;2022-08-04T06:49:05;100884.43;;;22.29;60.79
50682;BME280;36779;52.168;20.878;2022-08-04T06:51:55;100880.41;;;22.38;60.79
50682;BME280;36779;52.168;20.878;2022-08-04T06:54:45;100878.28;;;22.50;60.82
50682;BME280;36779;52.168;20.878;2022-08-04T06:57:35;100875.27;;;22.60;60.77
50682;BME280;36779;52.168;20.878;2022-08-04T07:00:26;100877.93;;;22.70;60.66
50682;BME280;36779;52.168;20.878;2022-08-04T07:03:17;100876.14;;;22.79;60.56
50682;BME280;36779;52.168;20.878;2022-08-04T07:06:06;100877.15;;;22.88;60.49
50682;BME280;36779;52.168;20.878;2022-08-04T07:09:02;100875.29;;;22.99;60.53
50682;BME280;36779;52.168;20.878;2022-08-04T07:11:54;100872.98;;;23.08;60.41
50682;BME280;36779;52.168;20.878;2022-08-04T07:14:43;100872.23;;;23.19;60.35
50682;BME280;36779;52.168;20.878;2022-08-04T07:17:33;100872.98;;;23.31;60.31
50682;BME280;36779;52.168;20.878;2022-08-04T07:20:23;100869.16;;;23.42;60.28
50682;BME280;36779;52.168;20.878;2022-08-04T07:23:25;100870.89;;;23.52;60.11
50682;BME280;36779;52.168;20.878;2022-08-04T07:26:15;100873.41;;;23.62;60.19
50682;BME280;36779;52.168;20.878;2022-08-04T07:29:06;100873.63;;;23.73;60.22
50682;BME280;36779;52.168;20.878;2022-08-04T07:31:56;100875.39;;;23.86;60.06
50682;BME280;36779;52.168;20.878;2022-08-04T07:34:48;100875.27;;;24.00;59.92
50682;BME280;36779;52.168;20.878;2022-08-04T07:37:39;100877.27;;;24.13;59.73
50682;BME280;36779;52.168;20.878;2022-08-04T07:40:28;100879.92;;;24.24;59.67
50682;BME280;36779;52.168;20.878;2022-08-04T07:43:17;100879.82;;;24.34;59.62
50682;BME280;36779;52.168;20.878;2022-08-04T07:46:06;100877.84;;;24.46;59.49
50682;BME280;36779;52.168;20.878;2022-08-04T07:48:59;100877.52;;;24.57;59.43
50682;BME280;36779;52.168;20.878;2022-08-04T07:51:48;100878.09;;;24.71;59.27
50682;BME280;36779;52.168;20.878;2022-08-04T07:54:39;100876.27;;;24.81;59.09
50682;BME280;36779;52.168;20.878;2022-08-04T07:57:19;100874.58;;;24.93;59.15
50682;BME280;36779;52.168;20.878;2022-08-04T08:00:27;100875.68;;;25.08;58.89
50682;BME280;36779;52.168;20.878;2022-08-04T08:03:18;100875.08;;;25.20;58.75
50682;BME280;36779;52.168;20.878;2022-08-04T08:06:09;100872.83;;;25.28;58.55
50682;BME280;36779;52.168;20.878;2022-08-04T08:09:20;100870.71;;;25.40;58.51
50682;BME280;36779;52.168;20.878;2022-08-04T08:12:09;100868.90;;;25.54;58.36
50682;BME280;36779;52.168;20.878;2022-08-04T08:15:20;100872.23;;;25.65;58.11
50682;BME280;36779;52.168;20.878;2022-08-04T08:18:09;100874.45;;;25.74;58.04
50682;BME280;36779;52.168;20.878;2022-08-04T08:20:58;100871.23;;;25.80;57.77
50682;BME280;36779;52.168;20.878;2022-08-04T08:23:37;100870.70;;;25.89;57.71
50682;BME280;36779;52.168;20.878;2022-08-04T08:26:26;100867.27;;;26.03;57.55
50682;BME280;36779;52.168;20.878;2022-08-04T08:29:16;100867.52;;;26.16;57.39
50682;BME280;36779;52.168;20.878;2022-08-04T08:31:56;100871.88;;;26.25;57.32
50682;BME280;36779;52.168;20.878;2022-08-04T08:34:54;100869.18;;;26.32;56.97
50682;BME280;36779;52.168;20.878;2022-08-04T08:37:46;100871.70;;;26.42;56.94
50682;BME280;36779;52.168;20.878;2022-08-04T08:40:49;100871.97;;;26.54;56.71
50682;BME280;36779;52.168;20.878;2022-08-04T08:43:51;100874.90;;;26.66;56.58
50682;BME280;36779;52.168;20.878;2022-08-04T08:47:10;100870.35;;;26.77;56.58
50682;BME280;36779;52.168;20.878;2022-08-04T08:50:21;100876.28;;;26.89;56.26
50682;BME280;36779;52.168;20.878;2022-08-04T08:53:23;100877.11;;;27.02;56.14
50682;BME280;36779;52.168;20.878;2022-08-04T08:56:30;100875.40;;;27.22;55.98
50682;BME280;36779;52.168;20.878;2022-08-04T08:59:38;100872.27;;;27.41;55.81
50682;BME280;36779;52.168;20.878;2022-08-04T09:06:13;100873.59;;;27.99;55.50
50682;BME280;36779;52.168;20.878;2022-08-04T09:09:45;100868.82;;;28.37;55.34
50682;BME280;36779;52.168;20.878;2022-08-04T09:12:44;100868.13;;;28.73;55.14
50682;BME280;36779;52.168;20.878;2022-08-04T09:15:36;100870.21;;;29.08;54.63
50682;BME280;36779;52.168;20.878;2022-08-04T09:18:33;100870.27;;;29.21;54.15
50682;BME280;36779;52.168;20.878;2022-08-04T09:21:31;100871.85;;;29.34;53.78
50682;BME280;36779;52.168;20.878;2022-08-04T09:24:26;100869.98;;;29.53;53.66
50682;BME280;36779;52.168;20.878;2022-08-04T09:27:36;100864.11;;;29.81;53.65
50682;BME280;36779;52.168;20.878;2022-08-04T09:30:35;100867.50;;;30.23;53.61
50682;BME280;36779;52.168;20.878;2022-08-04T09:33:38;100862.00;;;30.58;53.22
50682;BME280;36779;52.168;20.878;2022-08-04T09:36:38;100862.63;;;30.72;52.57
50682;BME280;36779;52.168;20.878;2022-08-04T09:39:44;100861.30;;;30.86;52.53
50682;BME280;36779;52.168;20.878;2022-08-04T09:42:49;100864.77;;;31.14;52.31
50682;BME280;36779;52.168;20.878;2022-08-04T09:45:47;100867.69;;;31.28;51.97
50682;BME280;36779;52.168;20.878;2022-08-04T09:48:46;100867.02;;;31.36;51.71
50682;BME280;36779;52.168;20.878;2022-08-04T09:51:52;100864.64;;;31.39;51.32
50682;BME280;36779;52.168;20.878;2022-08-04T09:54:51;100866.56;;;31.50;51.54
50682;BME280;36779;52.168;20.878;2022-08-04T09:57:52;100861.48;;;31.89;51.48
50682;BME280;36779;52.168;20.878;2022-08-04T10:00:48;100861.94;;;32.11;50.92
50682;BME280;36779;52.168;20.878;2022-08-04T10:03:31;100859.79;;;32.12;50.52
50682;BME280;36779;52.168;20.878;2022-08-04T10:06:42;100858.11;;;32.22;50.38
50682;BME280;36779;52.168;20.878;2022-08-04T10:09:51;100856.13;;;32.40;50.35
50682;BME280;36779;52.168;20.878;2022-08-04T10:12:56;100855.60;;;32.47;49.89
50682;BME280;36779;52.168;20.878;2022-08-04T10:15:57;100850.72;;;32.49;49.77
50682;BME280;36779;52.168;20.878;2022-08-04T10:19:00;100851.20;;;32.57;49.65
50682;BME280;36779;52.168;20.878;2022-08-04T10:22:04;100847.81;;;32.60;49.39
50682;BME280;36779;52.168;20.878;2022-08-04T10:25:27;100847.86;;;32.43;48.99
50682;BME280;36779;52.168;20.878;2022-08-04T10:28:43;100843.77;;;32.38;48.93
50682;BME280;36779;52.168;20.878;2022-08-04T10:31:37;100842.91;;;32.46;48.99
50682;BME280;36779;52.168;20.878;2022-08-04T10:34:30;100840.42;;;32.59;48.77
50682;BME280;36779;52.168;20.878;2022-08-04T10:37:28;100841.59;;;32.69;48.55
50682;BME280;36779;52.168;20.878;2022-08-04T10:40:43;100836.38;;;32.57;48.01
50682;BME280;36779;52.168;20.878;2022-08-04T10:43:45;100835.65;;;32.31;47.75
50682;BME280;36779;52.168;20.878;2022-08-04T10:46:43;100835.61;;;32.13;48.04
50682;BME280;36779;52.168;20.878;2022-08-04T10:49:40;100829.39;;;32.34;48.37
50682;BME280;36779;52.168;20.878;2022-08-04T10:52:32;100825.61;;;32.64;48.39
50682;BME280;36779;52.168;20.878;2022-08-04T10:55:30;100829.64;;;32.74;47.89
50682;BME280;36779;52.168;20.878;2022-08-04T10:58:53;100826.15;;;32.92;47.90
50682;BME280;36779;52.168;20.878;2022-08-04T11:01:47;100827.52;;;33.18;47.67
50682;BME280;36779;52.168;20.878;2022-08-04T11:05:00;100824.36;;;33.39;47.40
50682;BME280;36779;52.168;20.878;2022-08-04T11:07:58;100823.75;;;33.61;47.24
50682;BME280;36779;52.168;20.878;2022-08-04T11:10:54;100824.30;;;33.80;47.01
50682;BME280;36779;52.168;20.878;2022-08-04T11:13:53;100827.12;;;33.76;46.63
50682;BME280;36779;52.168;20.878;2022-08-04T11:16:42;100825.30;;;33.73;46.57
50682;BME280;36779;52.168;20.878;2022-08-04T11:19:33;100823.12;;;34.01;46.74
50682;BME280;36779;52.168;20.878;2022-08-04T11:22:25;100826.66;;;34.20;46.43
50682;BME280;36779;52.168;20.878;2022-08-04T11:25:21;100819.61;;;33.91;45.69
50682;BME280;36779;52.168;20.878;2022-08-04T11:28:21;100820.29;;;33.80;45.85
50682;BME280;36779;52.168;20.878;2022-08-04T11:31:15;100814.69;;;33.81;45.61
50682;BME280;36779;52.168;20.878;2022-08-04T11:34:17;100816.15;;;33.90;45.63
50682;BME280;36779;52.168;20.878;2022-08-04T11:37:19;100817.88;;;33.98;45.36
50682;BME280;36779;52.168;20.878;2022-08-04T11:40:19;100815.24;;;34.00;45.17
50682;BME280;36779;52.168;20.878;2022-08-04T11:43:21;100814.73;;;33.94;44.92
50682;BME280;36779;52.168;20.878;2022-08-04T11:46:37;100813.33;;;33.76;44.61
50682;BME280;36779;52.168;20.878;2022-08-04T11:49:32;100810.96;;;33.76;44.77
50682;BME280;36779;52.168;20.878;2022-08-04T11:52:44;100810.02;;;33.68;44.55
50682;BME280;36779;52.168;20.878;2022-08-04T11:55:35;100817.00;;;33.59;44.57
50682;BME280;36779;52.168;20.878;2022-08-04T11:58:45;100812.58;;;33.38;44.23
50682;BME280;36779;52.168;20.878;2022-08-04T12:01:55;100810.90;;;33.30;44.34
50682;BME280;36779;52.168;20.878;2022-08-04T12:04:57;100808.19;;;33.20;44.16
50682;BME280;36779;52.168;20.878;2022-08-04T12:07:59;100805.01;;;33.19;44.16
50682;BME280;36779;52.168;20.878;2022-08-04T12:11:08;100802.92;;;33.33;44.11
50682;BME280;36779;52.168;20.878;2022-08-04T12:14:07;100800.48;;;33.45;43.92
50682;BME280;36779;52.168;20.878;2022-08-04T12:16:59;100798.98;;;33.56;44.02
50682;BME280;36779;52.168;20.878;2022-08-04T12:19:52;100799.61;;;33.63;43.79
50682;BME280;36779;52.168;20.878;2022-08-04T12:22:56;100799.98;;;33.64;43.57
50682;BME280;36779;52.168;20.878;2022-08-04T12:25:47;100794.23;;;33.62;43.27
50682;BME280;36779;52.168;20.878;2022-08-04T12:28:39;100797.28;;;33.56;43.36
50682;BME280;36779;52.168;20.878;2022-08-04T12:31:51;100794.70;;;33.55;43.09
50682;BME280;36779;52.168;20.878;2022-08-04T12:34:45;100792.79;;;33.46;43.03
50682;BME280;36779;52.168;20.878;2022-08-04T12:37:37;100791.69;;;33.40;42.99
50682;BME280;36779;52.168;20.878;2022-08-04T12:40:24;100784.30;;;33.39;42.79
50682;BME280;36779;52.168;20.878;2022-08-04T12:43:21;100779.50;;;33.24;42.53
50682;BME280;36779;52.168;20.878;2022-08-04T12:46:10;100777.33;;;32.93;42.38
50682;BME280;36779;52.168;20.878;2022-08-04T12:49:03;100774.76;;;32.91;42.57
50682;BME280;36779;52.168;20.878;2022-08-04T12:51:54;100774.41;;;32.93;42.74
50682;BME280;36779;52.168;20.878;2022-08-04T12:54:57;100770.61;;;32.95;42.62
50682;BME280;36779;52.168;20.878;2022-08-04T12:57:49;100770.98;;;32.97;42.62
50682;BME280;36779;52.168;20.878;2022-08-04T13:00:38;100766.61;;;33.07;42.63
50682;BME280;36779;52.168;20.878;2022-08-04T13:03:36;100768.36;;;33.11;42.45
50682;BME280;36779;52.168;20.878;2022-08-04T13:06:29;100766.77;;;33.13;42.35
50682;BME280;36779;52.168;20.878;2022-08-04T13:09:20;100761.41;;;33.11;42.12
50682;BME280;36779;52.168;20.878;2022-08-04T13:12:16;100762.71;;;33.15;42.24
50682;BME280;36779;52.168;20.878;2022-08-04T13:15:15;100763.33;;;33.05;41.91
50682;BME280;36779;52.168;20.878;2022-08-04T13:18:08;100758.54;;;33.02;41.87
50682;BME280;36779;52.168;20.878;2022-08-04T13:21:14;100758.21;;;33.07;41.96
50682;BME280;36779;52.168;20.878;2022-08-04T13:24:12;100754.48;;;33.19;42.03
50682;BME280;36779;52.168;20.878;2022-08-04T13:27:11;100752.94;;;33.24;41.72
50682;BME280;36779;52.168;20.878;2022-08-04T13:30:06;100749.05;;;33.16;41.51
50682;BME280;36779;52.168;20.878;2022-08-04T13:33:11;100747.68;;;33.12;41.56
50682;BME280;36779;52.168;20.878;2022-08-04T13:36:02;100743.15;;;33.10;41.53
50682;BME280;36779;52.168;20.878;2022-08-04T13:38:56;100743.61;;;33.09;41.44
50682;BME280;36779;52.168;20.878;2022-08-04T13:41:51;100743.61;;;32.95;41.24
50682;BME280;36779;52.168;20.878;2022-08-04T13:44:51;100736.75;;;32.73;41.10
50682;BME280;36779;52.168;20.878;2022-08-04T13:47:27;100735.75;;;32.67;41.21
50682;BME280;36779;52.168;20.878;2022-08-04T13:50:22;100728.76;;;32.66;41.02
50682;BME280;36779;52.168;20.878;2022-08-04T13:53:17;100729.11;;;32.58;41.08
50682;BME280;36779;52.168;20.878;2022-08-04T13:56:02;100722.52;;;32.49;40.92
50682;BME280;36779;52.168;20.878;2022-08-04T13:58:48;100717.70;;;32.39;40.88
50682;BME280;36779;52.168;20.878;2022-08-04T14:01:39;100718.27;;;32.31;40.97
50682;BME280;36779;52.168;20.878;2022-08-04T14:04:40;100713.16;;;32.27;40.93
50682;BME280;36779;52.168;20.878;2022-08-04T14:07:45;100713.61;;;32.18;40.79
50682;BME280;36779;52.168;20.878;2022-08-04T14:10:35;100709.34;;;32.12;40.89
50682;BME280;36779;52.168;20.878;2022-08-04T14:13:31;100711.33;;;32.15;40.79
50682;BME280;36779;52.168;20.878;2022-08-04T14:16:23;100708.83;;;32.13;40.66
50682;BME280;36779;52.168;20.878;2022-08-04T14:19:12;100708.80;;;32.04;40.53
50682;BME280;36779;52.168;20.878;2022-08-04T14:22:01;100705.88;;;32.03;40.61
50682;BME280;36779;52.168;20.878;2022-08-04T14:24:55;100708.42;;;31.99;40.38
50682;BME280;36779;52.168;20.878;2022-08-04T14:27:46;100704.59;;;31.88;40.38
50682;BME280;36779;52.168;20.878;2022-08-04T14:30:36;100702.46;;;31.92;40.39
50682;BME280;36779;52.168;20.878;2022-08-04T14:33:16;100697.31;;;31.94;40.34
50682;BME280;36779;52.168;20.878;2022-08-04T14:36:26;100696.94;;;31.93;40.43
50682;BME280;36779;52.168;20.878;2022-08-04T14:39:16;100697.08;;;31.91;40.26
50682;BME280;36779;52.168;20.878;2022-08-04T14:42:06;100695.29;;;31.78;40.01
50682;BME280;36779;52.168;20.878;2022-08-04T14:44:56;100692.52;;;31.55;39.95
50682;BME280;36779;52.168;20.878;2022-08-04T14:47:46;100694.32;;;31.52;40.04
50682;BME280;36779;52.168;20.878;2022-08-04T14:50:42;100691.86;;;31.50;39.95
50682;BME280;36779;52.168;20.878;2022-08-04T14:53:37;100687.87;;;31.51;39.92
50682;BME280;36779;52.168;20.878;2022-08-04T14:56:26;100685.94;;;31.44;39.87
50682;BME280;36779;52.168;20.878;2022-08-04T14:59:44;100685.65;;;31.35;39.67
50682;BME280;36779;52.168;20.878;2022-08-04T15:02:49;100688.56;;;31.19;39.69
50682;BME280;36779;52.168;20.878;2022-08-04T15:05:41;100682.20;;;31.05;39.64
50682;BME280;36779;52.168;20.878;2022-08-04T15:08:52;100680.32;;;30.91;39.58
50682;BME280;36779;52.168;20.878;2022-08-04T15:11:42;100681.35;;;30.82;39.68
50682;BME280;36779;52.168;20.878;2022-08-04T15:14:32;100675.70;;;30.73;39.63
50682;BME280;36779;52.168;20.878;2022-08-04T15:17:25;100679.59;;;30.62;39.59
50682;BME280;36779;52.168;20.878;2022-08-04T15:20:17;100676.58;;;30.48;39.75
50682;BME280;36779;52.168;20.878;2022-08-04T15:23:09;100675.45;;;30.37;39.81
50682;BME280;36779;52.168;20.878;2022-08-04T15:26:02;100676.34;;;30.28;39.84
50682;BME280;36779;52.168;20.878;2022-08-04T15:28:57;100676.08;;;30.18;39.94
50682;BME280;36779;52.168;20.878;2022-08-04T15:31:48;100673.71;;;30.08;39.98
50682;BME280;36779;52.168;20.878;2022-08-04T15:35:00;100669.45;;;29.98;39.83
50682;BME280;36779;52.168;20.878;2022-08-04T15:37:58;100669.66;;;29.90;39.87
50682;BME280;36779;52.168;20.878;2022-08-04T15:41:03;100672.02;;;29.81;39.88
50682;BME280;36779;52.168;20.878;2022-08-04T15:44:05;100669.29;;;29.75;39.88
50682;BME280;36779;52.168;20.878;2022-08-04T15:47:13;100666.44;;;29.66;39.94
50682;BME280;36779;52.168;20.878;2022-08-04T15:50:07;100669.65;;;29.57;39.80